Terminal Aerodrome Forecast
Issued by NWS

Home | Current Version | Previous Version | Text Only | Print | Product List | Glossary On
Versions: 1 2 3 4 5 6 7 8 9 10 11 12 13 14 15 16 17 18 19 20 21 22 23 24 25 26 27 28 29
000
FTUS43 KDLH 271200 AAA
TAFHYR
TAF AMD
KHYR 271244Z 2713/2812 12003KT P6SM SKC WS020/21030KT
     FM271800 19009G15KT P6SM SCT030
     FM280000 18006KT P6SM FEW025
     FM280700 VRB02KT P6SM SCT040=

USA.gov is the U.S. government's official web portal to all federal, state and local government web resources and services.